Time;durP1;ratioP1;P1;durP2;ratioP2;P2;SDS_P1;SDS_P2;PMS_P1;PMS_P2;Temp;Humidity;BMP_temperature;BMP_pressure;BME280_temperature;BME280_humidity;BME280_pressure;Samples;Min_cycle;Max_cycle;Signal;HPM_P1;HPM_P2
2024/04/14 00:04:38;;;;;;;7.35;3.65;;;;;;;17.05;54.15;100516.94;10255507;28;20021;-75
2024/04/14 00:09:40;;;;;;;6.38;3.30;;;;;;;16.75;51.34;100521.88;10250832;28;20033;-76
2024/04/14 00:14:42;;;;;;;7.28;2.40;;;;;;;16.42;50.93;100539.81;10251303;28;20201;-77
2024/04/14 00:19:44;;;;;;;4.97;2.78;;;;;;;16.25;51.66;100532.56;10252624;29;20010;-77
2024/04/14 00:24:47;;;;;;;9.50;2.75;;;;;;;16.25;53.28;100541.53;10251146;29;20006;-77
2024/04/14 00:29:48;;;;;;;4.72;3.00;;;;;;;16.10;55.43;100548.53;10244462;28;20027;-76
2024/04/14 00:34:51;;;;;;;5.57;3.22;;;;;;;16.17;55.59;100536.03;10248714;28;20017;-76
2024/04/14 00:39:53;;;;;;;5.47;3.60;;;;;;;15.97;56.63;100548.91;10250860;29;20370;-77
2024/04/14 00:44:55;;;;;;;4.40;3.13;;;;;;;15.69;57.13;100542.75;10250854;29;20017;-76
2024/04/14 00:49:57;;;;;;;4.73;2.87;;;;;;;16.00;56.12;100573.00;10250526;29;20013;-76
2024/04/14 00:54:59;;;;;;;7.85;3.53;;;;;;;15.50;58.06;100573.50;10243290;28;20292;-77
2024/04/14 01:00:05;;;;;;;7.32;3.22;;;;;;;15.41;57.91;100560.84;10251446;29;20028;-77
2024/04/14 01:05:07;;;;;;;6.93;2.90;;;;;;;15.45;57.78;100575.81;10252664;29;20029;-77
2024/04/14 01:10:09;;;;;;;4.80;2.67;;;;;;;15.38;58.10;100570.13;10266629;29;20107;-75
2024/04/14 01:15:11;;;;;;;11.90;2.45;;;;;;;15.07;57.88;100585.78;10284173;29;20019;-76
2024/04/14 01:20:13;;;;;;;6.55;3.17;;;;;;;15.08;58.36;100582.06;10263784;29;20013;-77
2024/04/14 01:25:15;;;;;;;9.15;2.38;;;;;;;15.14;58.42;100592.31;10254157;28;20132;-77
2024/04/14 01:30:17;;;;;;;3.38;2.28;;;;;;;14.89;58.32;100593.84;10256535;29;20494;-77
2024/04/14 01:35:19;;;;;;;3.22;2.10;;;;;;;14.80;58.74;100600.97;10250789;29;20009;-77
2024/04/14 01:40:20;;;;;;;7.70;2.53;;;;;;;14.92;58.61;100600.78;10256156;29;20033;-77
2024/04/14 01:45:22;;;;;;;4.95;2.30;;;;;;;14.75;58.80;100600.53;10255709;29;20017;-77
2024/04/14 01:50:24;;;;;;;7.97;2.50;;;;;;;15.13;58.45;100605.97;10255769;28;20017;-76
2024/04/14 01:55:26;;;;;;;5.00;2.60;;;;;;;14.79;59.56;100607.38;10255619;28;20264;-76
2024/04/14 02:00:28;;;;;;;9.17;3.70;;;;;;;14.81;59.88;100616.19;10254007;29;20391;-77
2024/04/14 02:05:30;;;;;;;;;;;;;;;14.79;59.89;100615.50;10228876;29;20303;-76
2024/04/14 02:10:38;;;;;;;4.55;2.70;;;;;;;14.53;61.14;100617.94;10255556;29;19941;-77
2024/04/14 02:15:40;;;;;;;3.45;2.53;;;;;;;14.36;62.22;100624.06;10254484;29;20024;-76
2024/04/14 02:20:43;;;;;;;7.28;2.67;;;;;;;14.26;62.85;100629.47;10255106;28;20024;-76
2024/04/14 02:25:58;;;;;;;5.13;2.33;;;;;;;14.15;62.78;100635.00;10241549;28;20092;-76
2024/04/14 02:31:00;;;;;;;4.45;2.40;;;;;;;14.20;63.31;100635.44;10254829;29;20017;-76
2024/04/14 02:36:02;;;;;;;9.30;2.72;;;;;;;14.30;63.11;100648.94;10252852;28;20026;-77
2024/04/14 02:41:05;;;;;;;3.95;2.10;;;;;;;14.40;62.62;100646.25;10254990;28;20020;-77
2024/04/14 02:46:07;;;;;;;2.92;2.22;;;;;;;14.29;62.88;100636.41;10226669;29;20029;-77
2024/04/14 02:51:09;;;;;;;4.28;1.92;;;;;;;13.93;63.93;100645.09;10254898;29;20009;-76
2024/04/14 02:56:10;;;;;;;3.97;2.27;;;;;;;13.53;65.23;100671.28;10253620;29;20020;-76
2024/04/14 03:01:15;;;;;;;3.67;2.13;;;;;;;13.92;64.07;100662.28;10253688;29;20013;-77
2024/04/14 03:06:17;;;;;;;4.72;2.33;;;;;;;13.92;64.69;100664.97;10252914;29;20686;-77
2024/04/14 03:11:19;;;;;;;8.75;2.58;;;;;;;13.57;66.35;100670.84;10253587;29;20009;-77
2024/04/14 03:16:21;;;;;;;10.77;2.33;;;;;;;13.77;65.96;100668.19;10253670;29;20013;-76
2024/04/14 03:21:23;;;;;;;8.00;2.95;;;;;;;13.40;67.50;100669.66;10253224;28;20110;-77
2024/04/14 03:26:25;;;;;;;7.80;2.83;;;;;;;13.83;65.94;100673.91;10252847;29;20031;-77
2024/04/14 03:31:27;;;;;;;6.00;2.83;;;;;;;13.24;69.02;100677.34;10253012;29;20426;-77
2024/04/14 03:36:29;;;;;;;5.40;2.70;;;;;;;13.87;66.90;100669.09;10252415;29;20914;-77
2024/04/14 03:41:31;;;;;;;9.27;3.08;;;;;;;13.53;68.22;100669.44;10227085;29;20027;-77
2024/04/14 03:46:32;;;;;;;13.33;3.73;;;;;;;13.67;66.92;100681.69;10252414;28;20021;-77
2024/04/14 03:51:34;;;;;;;9.70;3.20;;;;;;;13.13;70.11;100675.59;10252306;29;20014;-77
2024/04/14 03:56:36;;;;;;;7.83;3.50;;;;;;;13.46;68.76;100687.13;10251224;29;20028;-77
2024/04/14 04:01:38;;;;;;;8.60;3.55;;;;;;;13.87;67.18;100696.09;10253204;29;20025;-76
2024/04/14 04:06:40;;;;;;;;;;;;;;;13.43;69.74;100692.81;10252617;28;20017;-77
2024/04/14 04:11:42;;;;;;;10.27;4.40;;;;;;;13.32;70.52;100698.28;10251659;28;19962;-76
2024/04/14 04:16:44;;;;;;;11.18;4.25;;;;;;;13.00;72.03;100693.81;10253047;28;20009;-76
2024/04/14 04:21:48;;;;;;;9.88;3.92;;;;;;;12.98;72.42;100693.97;10252873;28;20017;-77
2024/04/14 04:26:49;;;;;;;13.80;4.20;;;;;;;13.19;71.06;100706.56;10243442;28;20469;-76
2024/04/14 04:31:51;;;;;;;9.43;4.07;;;;;;;13.18;72.03;100712.97;10251221;29;20025;-77
2024/04/14 04:36:53;;;;;;;10.77;3.80;;;;;;;12.67;74.34;100714.63;10248096;29;20024;-76
2024/04/14 04:41:55;;;;;;;9.57;3.90;;;;;;;12.80;72.95;100725.19;10251671;29;20023;-77
2024/04/14 04:46:57;;;;;;;11.63;3.70;;;;;;;12.76;72.90;100719.22;10250229;28;20252;-76
2024/04/14 04:51:59;;;;;;;13.25;3.47;;;;;;;12.27;75.73;100717.06;10249265;29;20321;-77
2024/04/14 04:57:01;;;;;;;8.50;3.07;;;;;;;13.04;71.78;100733.03;10252270;28;20024;-77
2024/04/14 05:02:03;;;;;;;10.30;3.25;;;;;;;13.04;70.82;100739.28;10256653;28;20014;-76
2024/04/14 05:07:06;;;;;;;10.50;3.42;;;;;;;12.86;71.28;100737.31;10256837;28;20009;-76
2024/04/14 05:12:07;;;;;;;9.65;3.42;;;;;;;12.97;70.65;100743.50;10258320;29;20014;-77
2024/04/14 05:17:10;;;;;;;9.15;3.20;;;;;;;13.25;69.11;100752.78;10259487;29;20024;-76
2024/04/14 05:22:12;;;;;;;;;;;;;;;13.32;66.86;100760.31;10272429;28;20041;-77
2024/04/14 05:27:15;;;;;;;6.35;2.30;;;;;;;13.33;66.06;100772.81;10266905;29;19932;-76
2024/04/14 05:32:18;;;;;;;10.90;2.50;;;;;;;13.31;64.45;100783.75;10262140;29;20018;-76
2024/04/14 05:37:20;;;;;;;6.10;2.13;;;;;;;13.62;63.19;100784.66;10262565;28;20032;-75
2024/04/14 05:42:22;;;;;;;8.45;3.38;;;;;;;13.51;64.18;100800.09;10255749;28;20009;-76
2024/04/14 05:47:24;;;;;;;;;;;;;;;13.63;63.66;100807.09;10260130;28;20009;-76
2024/04/14 05:52:27;;;;;;;11.13;2.60;;;;;;;13.80;62.82;100803.81;10258171;28;20374;-77
2024/04/14 05:57:29;;;;;;;6.68;2.22;;;;;;;14.06;63.39;100806.88;10249543;28;20010;-76
2024/04/14 06:02:31;;;;;;;6.95;2.47;;;;;;;13.39;65.32;100821.75;10255340;28;20099;-77
2024/04/14 06:07:33;;;;;;;7.90;2.28;;;;;;;13.87;63.97;100823.84;10255193;28;20013;-76
2024/04/14 06:12:37;;;;;;;7.28;2.30;;;;;;;13.47;64.96;100819.25;10252329;28;20088;-77
2024/04/14 06:17:39;;;;;;;8.93;2.70;;;;;;;13.75;66.29;100832.19;10256700;28;20028;-76
2024/04/14 06:22:41;;;;;;;9.25;2.38;;;;;;;13.68;66.16;100832.72;10259098;28;20260;-76
2024/04/14 06:27:43;;;;;;;6.30;1.98;;;;;;;14.07;62.43;100840.13;10255400;28;20482;-76
2024/04/14 06:32:45;;;;;;;5.32;1.80;;;;;;;13.66;62.30;100850.06;10257647;28;20005;-76
2024/04/14 06:37:47;;;;;;;6.80;1.40;;;;;;;13.40;61.85;100849.59;10242139;28;20013;-76
2024/04/14 06:42:48;;;;;;;3.90;1.10;;;;;;;13.63;58.73;100847.59;10248214;28;20374;-76
2024/04/14 06:47:50;;;;;;;6.25;1.10;;;;;;;13.67;58.29;100859.84;10256289;28;20248;-76
2024/04/14 06:52:52;;;;;;;5.55;1.25;;;;;;;13.32;57.09;100861.00;10257549;28;20006;-76
2024/04/14 06:57:54;;;;;;;4.07;1.05;;;;;;;13.68;56.93;100875.06;10220401;28;20009;-75
2024/04/14 07:02:56;;;;;;;5.78;1.92;;;;;;;14.07;57.37;100870.72;10220730;28;20481;-77
2024/04/14 07:07:58;;;;;;;1.80;1.30;;;;;;;14.03;55.91;100881.94;10249352;28;20013;-76
2024/04/14 07:13:00;;;;;;;5.30;1.30;;;;;;;14.22;56.80;100882.03;10256133;28;20013;-76
2024/04/14 07:18:02;;;;;;;7.20;1.43;;;;;;;14.47;54.90;100877.16;10270926;28;20248;-75
2024/04/14 07:23:05;;;;;;;5.57;1.00;;;;;;;14.08;53.79;100877.84;10207541;28;20247;-75
2024/04/14 07:28:07;;;;;;;3.67;1.60;;;;;;;13.57;53.99;100883.22;10256062;28;20029;-77
2024/04/14 07:33:08;;;;;;;7.50;1.40;;;;;;;14.67;50.81;100883.47;10272265;28;20025;-77
2024/04/14 07:38:14;;;;;;;8.05;1.67;;;;;;;14.87;49.67;100879.81;10250921;28;20029;-77
2024/04/14 07:43:15;;;;;;;8.70;1.27;;;;;;;15.84;48.72;100892.47;10257222;28;20009;-76
2024/04/14 07:48:17;;;;;;;6.70;1.33;;;;;;;15.23;50.72;100896.34;10286001;28;20037;-77
2024/04/14 07:53:19;;;;;;;5.57;1.35;;;;;;;14.67;52.12;100903.25;10263870;28;20782;-78
2024/04/14 07:58:22;;;;;;;5.18;1.58;;;;;;;14.05;54.05;100901.56;10259462;28;20013;-77
2024/04/14 08:03:23;;;;;;;7.78;1.42;;;;;;;14.40;52.19;100897.59;10246354;28;20021;-77
2024/04/14 08:08:25;;;;;;;6.32;1.85;;;;;;;15.00;50.71;100903.88;10251449;28;20024;-76
2024/04/14 08:13:27;;;;;;;4.27;1.13;;;;;;;15.14;49.91;100910.72;10252146;28;20013;-76
2024/04/14 08:18:29;;;;;;;6.87;1.40;;;;;;;15.03;51.65;100917.16;10254061;28;21030;-76
2024/04/14 08:23:31;;;;;;;6.28;1.23;;;;;;;14.09;51.90;100932.72;10253254;28;20384;-77
2024/04/14 08:28:33;;;;;;;9.48;1.15;;;;;;;15.90;48.71;100924.38;10253316;28;20021;-77
2024/04/14 08:33:34;;;;;;;5.13;1.73;;;;;;;16.26;47.84;100927.31;10248497;28;20005;-75
2024/04/14 08:38:37;;;;;;;6.10;1.15;;;;;;;15.66;47.54;100923.00;10254827;28;20024;-76
2024/04/14 08:43:39;;;;;;;6.10;1.40;;;;;;;15.51;48.77;100929.00;10252888;28;20128;-76
2024/04/14 08:48:43;;;;;;;4.50;1.25;;;;;;;14.73;48.13;100928.91;10253783;28;20017;-76
2024/04/14 08:53:45;;;;;;;7.30;1.52;;;;;;;14.94;49.29;100928.78;10253871;28;20025;-76
2024/04/14 08:58:49;;;;;;;2.47;0.82;;;;;;;16.15;46.60;100925.59;10252778;28;20025;-75
2024/04/14 09:03:51;;;;;;;4.63;1.10;;;;;;;16.39;45.84;100922.41;10253632;28;20021;-76
2024/04/14 09:08:54;;;;;;;7.35;1.30;;;;;;;16.74;45.02;100924.38;10241179;28;20014;-76
2024/04/14 09:13:56;;;;;;;5.43;1.57;;;;;;;15.31;47.43;100931.69;10252515;28;20020;-75
2024/04/14 09:18:58;;;;;;;4.80;1.17;;;;;;;14.79;46.81;100940.00;10270448;28;20252;-76
2024/04/14 09:23:59;;;;;;;6.28;1.35;;;;;;;14.18;49.52;100950.84;10254656;28;20005;-77
2024/04/14 09:29:05;;;;;;;4.53;1.10;;;;;;;14.96;48.61;100945.75;10252684;28;20021;-77
2024/04/14 09:34:07;;;;;;;3.80;1.05;;;;;;;15.01;47.56;100957.00;10250125;28;20028;-75
2024/04/14 09:39:10;;;;;;;5.30;1.30;;;;;;;15.62;47.14;100943.25;10251953;28;20013;-76
2024/04/14 09:44:12;;;;;;;4.63;0.98;;;;;;;15.51;45.93;100951.50;10253888;28;20095;-76
2024/04/14 09:49:16;;;;;;;5.57;1.13;;;;;;;15.17;45.94;100954.59;10260386;28;20988;-76
2024/04/14 09:54:21;;;;;;;4.07;2.05;;;;;;;14.44;46.44;100953.13;10256844;28;20023;-76
2024/04/14 09:59:23;;;;;;;5.32;1.20;;;;;;;15.14;46.81;100949.47;10231102;28;20024;-76
2024/04/14 10:04:27;;;;;;;5.27;1.03;;;;;;;15.35;46.28;100949.38;10257237;28;20021;-74
2024/04/14 10:09:29;;;;;;;5.85;1.13;;;;;;;16.05;45.23;100941.03;10256790;28;20405;-77
2024/04/14 10:14:44;;;;;;;1.13;0.57;;;;;;;15.48;46.13;100959.94;10255151;28;20024;-76
2024/04/14 10:20:00;;;;;;;5.10;1.30;;;;;;;14.85;47.38;100973.75;10257793;28;20024;-77
2024/04/14 10:25:02;;;;;;;4.32;1.13;;;;;;;15.76;45.97;100958.19;10261783;28;20042;-76
2024/04/14 10:30:05;;;;;;;6.63;1.05;;;;;;;14.76;47.53;100953.81;10256396;28;20013;-76
2024/04/14 10:35:15;;;;;;;8.20;2.30;;;;;;;15.81;46.27;100955.91;10254966;28;20013;-76
2024/04/14 10:40:18;;;;;;;5.90;1.20;;;;;;;15.99;45.24;100961.47;10255686;28;20009;-76
2024/04/14 10:45:29;;;;;;;5.32;1.30;;;;;;;16.02;45.82;100946.75;10255572;28;20014;-74
2024/04/14 10:50:31;;;;;;;4.40;1.47;;;;;;;15.10;47.03;100948.03;10256173;28;20022;-77
2024/04/14 10:55:33;;;;;;;5.73;1.23;;;;;;;14.44;46.24;100945.00;10244339;28;20017;-75
2024/04/14 11:00:35;;;;;;;4.43;1.17;;;;;;;14.93;46.88;100946.03;10250390;28;20746;-76
2024/04/14 11:05:37;;;;;;;4.22;1.02;;;;;;;15.57;45.88;100940.09;10255197;28;20013;-77
2024/04/14 11:10:39;;;;;;;8.05;1.35;;;;;;;14.74;47.87;100922.50;10254947;28;20009;-76
2024/04/14 11:15:44;;;;;;;5.57;1.33;;;;;;;15.76;44.09;100930.25;10254293;28;20088;-76
2024/04/14 11:20:47;;;;;;;4.90;1.52;;;;;;;16.03;43.62;100927.63;10269928;28;20365;-75
2024/04/14 11:25:52;;;;;;;8.13;1.65;;;;;;;14.92;45.68;100928.94;10255019;28;20068;-77
2024/04/14 11:30:55;;;;;;;3.30;1.30;;;;;;;14.59;47.74;100928.28;10227184;28;20009;-76
2024/04/14 11:36:00;;;;;;;9.60;1.40;;;;;;;17.10;45.02;100924.41;10255178;28;20039;-78
2024/04/14 11:41:03;;;;;;;7.25;1.23;;;;;;;16.15;44.71;100918.34;10256857;28;20049;-76
2024/04/14 11:46:06;;;;;;;8.10;1.50;;;;;;;16.42;43.75;100915.81;10256382;28;20029;-77
2024/04/14 11:51:12;;;;;;;8.98;2.00;;;;;;;16.43;44.40;100918.41;10256059;28;20374;-76
2024/04/14 11:56:14;;;;;;;3.10;0.65;;;;;;;15.36;44.26;100913.19;10253591;28;20113;-77
2024/04/14 12:01:16;;;;;;;4.28;1.92;;;;;;;15.44;45.66;100923.28;10254455;28;20024;-76
2024/04/14 12:06:18;;;;;;;6.43;1.45;;;;;;;16.91;42.68;100919.97;10231515;28;20728;-77
2024/04/14 12:11:19;;;;;;;6.57;1.33;;;;;;;16.38;42.42;100926.13;10253622;28;20485;-77
2024/04/14 12:16:22;;;;;;;9.55;1.42;;;;;;;16.43;43.28;100904.84;10253801;28;20017;-76
2024/04/14 12:21:23;;;;;;;4.35;1.20;;;;;;;16.12;42.21;100915.06;10254256;28;20489;-77
2024/04/14 12:26:25;;;;;;;8.55;1.55;;;;;;;17.51;42.13;100903.13;10253894;28;20028;-76
2024/04/14 12:31:27;;;;;;;7.00;1.48;;;;;;;17.36;40.89;100916.41;10252784;28;20009;-76
2024/04/14 12:36:29;;;;;;;5.05;1.67;;;;;;;20.47;37.17;100902.84;10253222;28;20112;-76
2024/04/14 12:41:31;;;;;;;;;;;;;;;19.06;37.96;100896.78;10261686;28;20108;-76
2024/04/14 12:46:33;;;;;;;4.93;0.90;;;;;;;21.22;34.43;100888.59;10251267;28;20010;-77
2024/04/14 12:51:35;;;;;;;4.10;1.17;;;;;;;19.59;35.80;100890.06;10254094;28;20454;-77
2024/04/14 12:56:37;;;;;;;8.23;1.50;;;;;;;19.08;37.24;100875.69;10259531;28;20362;-75
2024/04/14 13:01:39;;;;;;;3.08;1.00;;;;;;;18.24;36.83;100878.31;10255331;28;20005;-77
2024/04/14 13:06:41;;;;;;;6.50;1.50;;;;;;;17.84;38.97;100859.88;10252319;28;20013;-76
2024/04/14 13:11:43;;;;;;;5.97;1.33;;;;;;;18.85;36.13;100854.56;10253422;28;20010;-77
2024/04/14 13:16:45;;;;;;;7.85;1.73;;;;;;;18.93;37.99;100851.88;10260505;28;20010;-77
2024/04/14 13:21:47;;;;;;;5.40;1.60;;;;;;;18.88;36.89;100834.34;10249861;28;20025;-77
2024/04/14 13:26:49;;;;;;;4.35;1.10;;;;;;;19.37;36.65;100834.38;10270159;28;20017;-77
2024/04/14 13:31:50;;;;;;;2.63;1.05;;;;;;;20.91;34.48;100828.56;10261759;28;20017;-77
2024/04/14 13:36:54;;;;;;;4.95;1.48;;;;;;;19.80;32.97;100811.34;10259903;28;20017;-77
2024/04/14 13:41:56;;;;;;;5.88;1.02;;;;;;;18.01;37.96;100817.38;10259138;28;20462;-76
2024/04/14 13:46:58;;;;;;;3.92;0.82;;;;;;;16.46;37.88;100828.63;10260469;28;20021;-77
2024/04/14 13:52:00;;;;;;;3.95;0.93;;;;;;;17.16;36.88;100822.53;10231730;28;20478;-77
2024/04/14 13:57:02;;;;;;;2.85;0.95;;;;;;;17.31;36.18;100810.13;10259937;28;20335;-76
2024/04/14 14:02:03;;;;;;;4.67;0.80;;;;;;;18.06;36.58;100815.00;10266334;28;20689;-77
2024/04/14 14:07:05;;;;;;;5.65;1.02;;;;;;;18.43;35.55;100802.91;10263621;28;20248;-77
2024/04/14 14:12:07;;;;;;;2.45;0.70;;;;;;;18.29;36.09;100788.94;10262456;28;20021;-78
2024/04/14 14:17:09;;;;;;;5.35;1.23;;;;;;;16.90;36.17;100808.91;10258817;28;20014;-77
2024/04/14 14:22:12;;;;;;;4.22;1.13;;;;;;;18.51;34.58;100783.88;10257861;28;20024;-77
2024/04/14 14:27:14;;;;;;;3.88;0.90;;;;;;;17.69;35.33;100778.13;10257113;28;20049;-77
2024/04/14 14:32:16;;;;;;;5.90;1.00;;;;;;;16.59;36.33;100792.97;10258644;28;20466;-78
2024/04/14 14:37:18;;;;;;;3.03;0.93;;;;;;;17.10;36.25;100780.56;10258912;28;20028;-77
2024/04/14 14:42:19;;;;;;;3.63;0.90;;;;;;;16.81;36.03;100799.81;10257999;28;20017;-77
2024/04/14 14:47:21;;;;;;;5.28;1.30;;;;;;;16.77;37.10;100782.16;10259004;28;20293;-77
2024/04/14 14:52:23;;;;;;;1.70;1.00;;;;;;;16.63;36.59;100796.25;10256773;28;20009;-77
2024/04/14 14:57:25;;;;;;;3.65;1.17;;;;;;;16.56;36.58;100783.31;10257320;28;20296;-77
2024/04/14 15:02:28;;;;;;;12.18;0.90;;;;;;;16.79;36.05;100785.56;10257162;28;20032;-76
2024/04/14 15:07:30;;;;;;;5.25;0.98;;;;;;;17.39;35.85;100769.44;10257905;28;20053;-78
2024/04/14 15:12:35;;;;;;;6.97;1.27;;;;;;;18.24;34.89;100774.13;10261591;28;20390;-75
2024/04/14 15:17:39;;;;;;;3.78;1.00;;;;;;;17.14;34.67;100770.28;10252412;28;20014;-77
2024/04/14 15:22:42;;;;;;;4.18;1.55;;;;;;;16.77;35.57;100769.44;10280042;28;20024;-77
2024/04/14 15:27:43;;;;;;;3.28;0.88;;;;;;;16.75;37.05;100774.16;10272721;28;20013;-75
2024/04/14 15:32:46;;;;;;;5.88;1.02;;;;;;;16.18;38.14;100770.84;10262046;28;20038;-77
2024/04/14 15:37:48;;;;;;;3.63;0.90;;;;;;;15.91;38.22;100779.81;10270458;28;20033;-77
2024/04/14 15:42:50;;;;;;;3.03;0.80;;;;;;;16.37;37.17;100761.72;10260621;28;20028;-75
2024/04/14 15:47:53;;;;;;;6.13;1.33;;;;;;;17.32;35.97;100759.38;10255382;28;20252;-77
2024/04/14 15:52:55;;;;;;;7.28;1.33;;;;;;;16.93;36.25;100748.88;10264542;28;20035;-77
2024/04/14 15:57:57;;;;;;;2.60;1.23;;;;;;;15.84;37.96;100746.19;10263001;28;20023;-77
2024/04/14 16:02:58;;;;;;;4.45;1.10;;;;;;;15.57;38.47;100755.97;10258399;28;20013;-77
2024/04/14 16:08:00;;;;;;;4.32;1.42;;;;;;;15.65;37.63;100750.69;10259281;28;20072;-76
2024/04/14 16:13:02;;;;;;;5.50;1.30;;;;;;;15.57;38.15;100731.63;10242076;28;20017;-76
2024/04/14 16:18:04;;;;;;;7.20;1.48;;;;;;;15.94;38.59;100730.75;10250403;28;20243;-77
2024/04/14 16:23:07;;;;;;;4.57;1.50;;;;;;;15.73;37.38;100730.13;10256563;28;20435;-76
2024/04/14 16:28:10;;;;;;;5.70;1.30;;;;;;;15.55;37.71;100724.63;10276220;28;20031;-75
2024/04/14 16:33:12;;;;;;;5.40;1.20;;;;;;;15.23;38.67;100721.31;10262904;28;20005;-77
2024/04/14 16:38:14;;;;;;;7.97;1.75;;;;;;;14.35;40.14;100723.19;10257324;28;20025;-77
2024/04/14 16:43:16;;;;;;;5.27;1.20;;;;;;;14.63;39.97;100717.97;10256604;28;20362;-76
2024/04/14 16:48:18;;;;;;;6.53;1.20;;;;;;;14.65;40.24;100704.31;10237897;28;20076;-76
2024/04/14 16:53:20;;;;;;;3.45;1.27;;;;;;;14.34;40.31;100715.22;10245892;28;20563;-76
2024/04/14 16:58:22;;;;;;;7.03;1.65;;;;;;;14.46;40.67;100718.69;10247827;28;20009;-77
2024/04/14 17:03:24;;;;;;;4.40;1.43;;;;;;;14.30;40.70;100703.00;10247685;28;20373;-77
2024/04/14 17:08:26;;;;;;;4.97;1.23;;;;;;;14.34;40.37;100690.91;10246902;28;20017;-77
2024/04/14 17:13:27;;;;;;;3.53;1.20;;;;;;;14.10;40.84;100691.31;10251164;28;20009;-77
2024/04/14 17:18:29;;;;;;;7.50;1.83;;;;;;;14.30;41.49;100686.78;10256035;28;20013;-76
2024/04/14 17:23:31;;;;;;;4.70;1.40;;;;;;;14.02;41.94;100694.72;10275136;28;20097;-77
2024/04/14 17:28:33;;;;;;;6.95;1.90;;;;;;;14.37;42.35;100694.19;10265262;28;20240;-76
2024/04/14 17:33:35;;;;;;;3.80;1.43;;;;;;;14.19;42.06;100678.81;10255904;28;20091;-78
2024/04/14 17:38:38;;;;;;;5.53;1.15;;;;;;;14.20;42.50;100680.50;10254439;28;20280;-76
2024/04/14 17:43:40;;;;;;;7.40;1.75;;;;;;;14.57;42.28;100678.00;10219564;28;20088;-77
2024/04/14 17:48:41;;;;;;;7.93;2.03;;;;;;;14.54;42.88;100673.72;10253355;28;20020;-77
2024/04/14 17:53:43;;;;;;;4.30;1.80;;;;;;;14.43;41.98;100665.78;10253693;28;20021;-77
2024/04/14 17:58:46;;;;;;;5.97;1.10;;;;;;;14.16;41.30;100661.03;10252484;28;20355;-76
2024/04/14 18:03:51;;;;;;;5.68;1.40;;;;;;;14.16;41.50;100664.59;10250064;28;20097;-76
2024/04/14 18:08:53;;;;;;;4.35;1.48;;;;;;;14.01;40.96;100654.31;10255845;28;20131;-77
2024/04/14 18:13:56;;;;;;;2.85;0.98;;;;;;;13.86;40.92;100646.63;10252647;28;20020;-77
2024/04/14 18:18:58;;;;;;;;;;;;;;;13.74;41.02;100644.19;10264515;28;20068;-75
2024/04/14 18:23:59;;;;;;;5.35;1.30;;;;;;;13.41;42.35;100643.50;10264497;28;19983;-77
2024/04/14 18:29:04;;;;;;;2.72;0.90;;;;;;;13.45;40.89;100629.63;10256569;28;20493;-76
2024/04/14 18:34:06;;;;;;;3.03;1.17;;;;;;;13.51;41.27;100621.97;10239479;29;20028;-77
2024/04/14 18:39:08;;;;;;;4.35;1.27;;;;;;;13.48;41.27;100615.84;10259453;29;20029;-78
2024/04/14 18:44:10;;;;;;;5.22;1.20;;;;;;;13.52;42.00;100619.16;10258309;28;20091;-77
2024/04/14 18:49:12;;;;;;;6.83;1.43;;;;;;;13.51;41.62;100617.44;10256828;28;20013;-78
2024/04/14 18:54:13;;;;;;;4.70;1.40;;;;;;;13.48;41.70;100620.41;10262457;28;20334;-76
2024/04/14 18:59:15;;;;;;;5.00;1.00;;;;;;;13.32;41.89;100628.97;10248515;28;20115;-76
2024/04/14 19:04:17;;;;;;;7.68;1.50;;;;;;;13.30;43.84;100617.47;10229096;29;20244;-76
2024/04/14 19:09:19;;;;;;;5.20;1.45;;;;;;;13.27;43.38;100602.44;10251068;28;20375;-77
2024/04/14 19:14:21;;;;;;;5.57;1.50;;;;;;;13.27;43.16;100602.44;10242923;28;20009;-75
2024/04/14 19:19:23;;;;;;;5.43;0.88;;;;;;;13.31;42.67;100596.75;10255741;28;20032;-76
2024/04/14 19:24:25;;;;;;;6.38;1.20;;;;;;;13.20;42.98;100593.16;10260855;28;20351;-76
2024/04/14 19:29:27;;;;;;;3.63;1.00;;;;;;;13.27;42.50;100596.16;10255095;28;20036;-76
2024/04/14 19:34:29;;;;;;;5.22;1.40;;;;;;;13.22;44.15;100593.03;10254619;29;20009;-76
2024/04/14 19:39:31;;;;;;;7.45;2.10;;;;;;;13.11;43.48;100590.41;10254984;29;20489;-76
2024/04/14 19:44:32;;;;;;;4.27;1.00;;;;;;;12.92;44.48;100589.34;10254348;28;20013;-76
2024/04/14 19:49:34;;;;;;;8.63;1.07;;;;;;;12.93;44.45;100574.03;10254612;29;20453;-76
2024/04/14 19:54:36;;;;;;;3.67;1.30;;;;;;;12.91;43.89;100573.31;10252794;28;20013;-76
2024/04/14 19:59:38;;;;;;;7.07;1.20;;;;;;;12.91;44.34;100562.53;10246012;28;20750;-76
2024/04/14 20:04:44;;;;;;;4.28;0.93;;;;;;;12.92;44.46;100564.25;10250852;29;20010;-76
2024/04/14 20:09:46;;;;;;;3.60;1.02;;;;;;;12.88;44.90;100560.09;10253268;29;20013;-76
2024/04/14 20:14:48;;;;;;;4.32;1.63;;;;;;;12.84;44.58;100554.13;10252725;28;20617;-76
2024/04/14 20:19:50;;;;;;;6.85;1.00;;;;;;;12.82;44.71;100534.53;10226643;29;20462;-76
2024/04/14 20:24:52;;;;;;;6.50;0.80;;;;;;;12.68;44.80;100530.34;10252164;28;20009;-76
2024/04/14 20:29:54;;;;;;;4.22;0.90;;;;;;;12.63;45.23;100520.97;10253792;28;20013;-74
2024/04/14 20:34:55;;;;;;;6.97;1.30;;;;;;;12.59;45.36;100507.78;10252483;28;20485;-75
2024/04/14 20:39:57;;;;;;;4.90;1.30;;;;;;;12.49;44.18;100504.16;10253590;29;20096;-76
2024/04/14 20:44:59;;;;;;;5.95;1.17;;;;;;;12.46;43.60;100496.34;10225183;29;20024;-76
2024/04/14 20:50:01;;;;;;;6.75;1.30;;;;;;;12.36;43.46;100492.75;10253236;29;20025;-76
2024/04/14 20:55:03;;;;;;;3.73;0.90;;;;;;;12.20;43.45;100490.50;10244121;28;20021;-76
2024/04/14 21:00:06;;;;;;;4.32;1.10;;;;;;;12.23;43.97;100486.69;10253364;28;20371;-76
2024/04/14 21:05:08;;;;;;;3.22;1.30;;;;;;;12.19;44.15;100480.72;10250029;29;20021;-75
2024/04/14 21:10:10;;;;;;;3.40;0.83;;;;;;;12.25;43.72;100482.03;10253242;28;20017;-76
2024/04/14 21:15:12;;;;;;;6.07;1.10;;;;;;;12.19;43.60;100487.94;10251701;29;20590;-75
2024/04/14 21:20:14;;;;;;;4.53;1.27;;;;;;;12.09;43.18;100490.56;10252120;29;20013;-76
2024/04/14 21:25:16;;;;;;;5.85;1.00;;;;;;;12.03;43.68;100477.63;10259023;28;20010;-76
2024/04/14 21:30:18;;;;;;;4.07;0.80;;;;;;;12.12;43.19;100466.94;10254031;28;20017;-76
2024/04/14 21:35:20;;;;;;;6.25;1.00;;;;;;;12.10;42.94;100468.91;10251424;28;20013;-76
2024/04/14 21:40:22;;;;;;;5.17;1.10;;;;;;;11.85;43.44;100461.22;10254069;28;20061;-76
2024/04/14 21:45:24;;;;;;;4.10;1.00;;;;;;;11.73;44.00;100455.88;10230265;29;20772;-76
2024/04/14 21:50:26;;;;;;;5.05;1.10;;;;;;;11.87;44.02;100456.53;10235050;29;20123;-75
2024/04/14 21:55:28;;;;;;;4.18;1.05;;;;;;;12.05;44.13;100441.50;10257001;29;20041;-75
2024/04/14 22:00:30;;;;;;;5.00;0.95;;;;;;;12.17;44.14;100423.44;10256507;28;20024;-76
2024/04/14 22:05:32;;;;;;;4.82;1.00;;;;;;;12.12;45.07;100431.94;10241380;29;20106;-75
2024/04/14 22:10:34;;;;;;;4.90;0.90;;;;;;;11.83;44.88;100442.50;10254964;29;20017;-75
2024/04/14 22:15:36;;;;;;;3.40;1.00;;;;;;;11.69;45.63;100435.63;10254598;29;20113;-75
2024/04/14 22:20:37;;;;;;;5.65;1.08;;;;;;;11.69;45.21;100424.00;10257632;28;20434;-76
2024/04/14 22:25:39;;;;;;;3.42;1.23;;;;;;;11.73;45.11;100403.91;10256248;29;20358;-75
2024/04/14 22:30:41;;;;;;;4.63;1.40;;;;;;;11.76;44.59;100392.88;10263256;28;20076;-75
2024/04/14 22:35:43;;;;;;;5.55;1.10;;;;;;;11.71;46.30;100397.78;10254432;28;20017;-76
2024/04/14 22:40:45;;;;;;;4.38;1.33;;;;;;;11.68;48.23;100396.25;10255761;29;20192;-76
2024/04/14 22:45:47;;;;;;;7.25;1.67;;;;;;;11.63;47.10;100398.47;10228013;28;20024;-74
2024/04/14 22:50:49;;;;;;;4.20;1.40;;;;;;;11.77;46.90;100386.53;10254952;28;20035;-75
2024/04/14 22:55:53;;;;;;;6.63;1.23;;;;;;;11.75;44.16;100380.41;10238733;28;21229;-75
2024/04/14 23:00:55;;;;;;;5.45;1.35;;;;;;;11.87;44.94;100365.03;10254825;29;20584;-75
2024/04/14 23:05:57;;;;;;;9.45;1.20;;;;;;;11.70;45.33;100353.03;10253878;28;20421;-75
2024/04/14 23:11:00;;;;;;;2.65;1.02;;;;;;;11.18;47.67;100362.88;10254596;28;20018;-75
2024/04/14 23:16:03;;;;;;;1.95;0.82;;;;;;;11.14;48.41;100372.19;10251944;29;20359;-75